• Join FlightAware (Why Join?)
  • Login
  • US Flag 
12:59PM EDT


 

Airport Tracker/Info


-or-


 

Live Flight TrackerFlight Track Log ✈ ASQ4549 ✈ 30-Sep-2013 ✈ KORD - KBNA

Flight Track Log - Related Links

Times and Time Zones

All times are in EDT time to prevent confusion due to time zone crossing. See the ASQ4549 flight status page for this flight to view local times or setup timezone preferences in your user account.

Time Position Orientation Groundspeed Altitude Reporting Facility
EDT Latitude Longitude Course Direction KTS MPH feet Rate Location/Type
03:23PM 41.9333 -87.9000 187° South 183 211 2,400  Level Chicago TRACON
03:24PM 41.8667 -87.9000 180° South 250 288 4,600 2,040 Climbing Chicago TRACON
03:25PM 41.8092 -87.8983 179° South 246 283 6,100 2,040 Climbing Chicago Center
03:26PM 41.5768 -87.8147 180° South  Level Estimated
03:26PM 41.7319 -87.8939 178° South 269 310 8,200  Level Chicago Center
03:27PM 41.4756 -87.7919 180° South  Level Estimated
03:27PM 41.6500 -87.8908 178° South 287 330 10,700  Level Chicago Center
03:28PM 41.3738 -87.8098 187° South  Level FlightAware Approximate
03:28PM 41.5631 -87.8853 177° South 306 352 12,600  Level Chicago Center
03:29PM 41.4608 -87.8803 178° South 357 411 13,900 1,500 Climbing Chicago Center
03:30PM 41.3542 -87.8836 181° South 375 432 15,700 1,680 Climbing Chicago Center
03:31PM 41.2467 -87.8931 184° South 382 440 17,400 1,740 Climbing Chicago Center
03:32PM 41.1189 -87.8886 178° South 382 440 19,300 1,680 Climbing Chicago Center
03:33PM 41.0133 -87.8850 179° South 382 440 20,900 1,500 Climbing Chicago Center
03:34PM 40.9078 -87.8825 179° South 380 437 22,500 1,500 Climbing Chicago Center
03:35PM 40.8033 -87.8786 178° South 378 435 24,100 1,500 Climbing Chicago Center
03:36PM 40.6992 -87.8750 178° South 376 433 25,600 1,620 Climbing Chicago Center
03:37PM 40.5731 -87.8717 179° South 377 434 27,500 1,620 Climbing Chicago Center
03:38PM 40.4703 -87.8683 179° South 374 430 29,000 1,440 Climbing Chicago Center
03:39PM 40.3653 -87.8631 178° South 377 434 30,500 960 Climbing Chicago Center
03:40PM 40.2569 -87.8606 179° South 385 443 31,000 240 Climbing Chicago Center
03:41PM 40.1414 -87.8556 178° South 409 471 31,000  Level Chicago Center
03:42PM 40.0106 -87.8514 179° South 443 510 31,000  Level Indianapolis Center
03:43PM 39.8814 -87.8450 178° South 461 531 31,000  Level Indianapolis Center
03:44PM 39.7500 -87.8394 178° South 471 542 31,000  Level Indianapolis Center
03:45PM 39.6175 -87.8347 178° South 476 548 31,000  Level Indianapolis Center
03:46PM 39.4592 -87.8275 178° South 477 549 31,000  Level Indianapolis Center
03:47PM 39.3339 -87.8208 178° South 478 550 31,000  Level Indianapolis Center
03:48PM 39.2000 -87.8164 179° South 480 552 31,000  Level Indianapolis Center
03:50PM 39.0658 -87.8094 178° South 480 552 31,000  Level Indianapolis Center
03:51PM 38.9044 -87.8036 178° South 483 556 31,000  Level Indianapolis Center
03:52PM 38.7703 -87.7975 178° South 483 556 31,000  Level Indianapolis Center
03:53PM 38.6369 -87.7919 178° South 480 552 31,000  Level Indianapolis Center
03:54PM 38.5033 -87.7864 178° South 481 554 31,000  Level Indianapolis Center
03:55PM 38.3700 -87.7811 178° South 481 554 31,000  Level Indianapolis Center
03:56PM 38.2375 -87.7747 178° South 480 552 31,000  Level Indianapolis Center
03:57PM 38.0764 -87.7686 178° South 484 557 31,000  Level Indianapolis Center
03:58PM 37.9442 -87.7561 176° South 482 555 31,000  Level Indianapolis Center
03:59PM 37.8283 -87.6733 151° Southeast 480 552 31,000 -300 Level Indianapolis Center
04:00PM 37.7069 -87.5653 145° Southeast 478 550 30,400 -1,260 Descending Indianapolis Center
04:01PM 37.5972 -87.4653 144° Southeast 481 554 28,400 -2,160 Descending Indianapolis Center
04:02PM 37.4908 -87.3717 145° Southeast 466 536 25,900 -2,520 Descending Indianapolis Center
04:03PM 37.3825 -87.2789 146° Southeast 465 535 23,200 -2,280 Descending Indianapolis Center
04:04PM 37.2617 -87.2278 161° South 457 526 21,300 -1,560 Descending Indianapolis Center
04:05PM 37.1406 -87.1950 168° South 443 510 20,000 -1,260 Descending Indianapolis Center
04:06PM 37.0617 -87.1697 166° South 425 489 19,200 -1,620 Descending Memphis Center
04:06PM 37.0197 -87.1586 168° South 413 475 18,400 -1,740 Descending Memphis Center
04:07PM 36.9506 -87.1381 167° South 419 482 17,500 -1,740 Descending Memphis Center
04:07PM 36.9000 -87.1244 168° South 419 482 16,700 -1,740 Descending Memphis Center
04:08PM 36.8392 -87.1061 166° South 407 468 15,800 -1,440 Descending Memphis Center
04:09PM 36.7419 -87.0531 156° South 389 448 14,300 -1,500 Descending Memphis Center
04:10PM 36.6531 -86.9997 154° Southeast 367 422 12,800 -1,500 Descending Memphis Center
04:11PM 36.5639 -86.9442 153° Southeast 337 388 11,300 -1,500 Descending Memphis Center
04:12PM 36.5058 -86.8769 137° Southeast 304 350 9,800 -1,500 Descending Memphis Center
04:13PM 36.4494 -86.8019 133° Southeast 291 335 8,300 -1,500 Descending Memphis Center
04:14PM 36.3972 -86.7269 131° Southeast 291 335 6,900 -1,500 Descending Memphis Center
04:15PM 36.3333 -86.6833 151° Southeast 271 312 5,400 -1,560 Descending Memphis Center
04:16PM 36.2725 -86.6706 170° South 252 290 3,800 -1,680 Descending Memphis Center
04:17PM 36.2097 -86.6631 174° South 237 273 2,100 -1,320 Descending Memphis Center
04:18PM 36.1619 -86.6681 185° South 196 226 1,200 -720 Descending Memphis Center
04:19PM 36.1206 -86.6775 190° South 160 184 700 -540 Descending Memphis Center